Terminal Aerodrome Forecast
Issued by NWS Mt. Holly, NJ

Home | Current Version | Previous Version | Text Only | Print | Product List | Glossary On
Versions: 1 2 3 4 5 6 7 8 9 10 11 12 13 14 15 16 17 18 19 20 21 22 23 24 25 26 27 28 29
481
FTUS41 KPHI 202320
TAFPHL
TAF
KPHL 202320Z 2100/2206 34008KT P6SM SCT100 SCT220
     FM211000 03006KT P6SM SKC
     FM211500 09006KT P6SM SKC
     FM211900 18006KT P6SM SCT250
     FM220000 16005KT P6SM BKN200=

USA.gov is the U.S. government's official web portal to all federal, state and local government web resources and services.